createdAt,value
2017-09-29T00:00:27.363Z,16.63
2017-09-29T00:00:55.461Z,16.69
2017-09-29T00:01:23.449Z,16.65
2017-09-29T00:01:51.562Z,16.62
2017-09-29T00:02:19.548Z,16.62
2017-09-29T00:02:47.538Z,16.7
2017-09-29T00:03:15.512Z,16.73
2017-09-29T00:03:43.492Z,16.72
2017-09-29T00:04:11.601Z,16.72
2017-09-29T00:04:39.478Z,16.66
2017-09-29T00:05:07.671Z,16.66
2017-09-29T00:05:35.668Z,16.73
2017-09-29T00:06:03.655Z,16.73
2017-09-29T00:06:31.650Z,16.74
2017-09-29T00:06:59.766Z,16.59
2017-09-29T00:07:27.855Z,16.73
2017-09-29T00:07:55.833Z,16.72
2017-09-29T00:08:23.839Z,16.73
2017-09-29T00:08:51.919Z,16.63
2017-09-29T00:09:19.910Z,16.59
2017-09-29T00:09:47.915Z,16.72
2017-09-29T00:10:15.997Z,16.65
2017-09-29T00:10:43.889Z,16.69
2017-09-29T00:11:11.890Z,16.76
2017-09-29T00:11:39.956Z,16.74
2017-09-29T00:12:08.065Z,16.69
2017-09-29T00:12:36.100Z,16.63
2017-09-29T00:13:04.189Z,16.76
2017-09-29T00:13:32.182Z,16.65
2017-09-29T00:14:00.277Z,16.77
2017-09-29T00:14:28.280Z,16.76
2017-09-29T00:14:56.073Z,16.65
2017-09-29T00:15:24.139Z,16.63
2017-09-29T00:15:52.125Z,16.76
2017-09-29T00:16:20.149Z,16.73
2017-09-29T00:16:48.129Z,16.74
2017-09-29T00:17:16.246Z,16.73
2017-09-29T00:17:44.355Z,16.7
2017-09-29T00:18:12.473Z,16.67
2017-09-29T00:18:40.619Z,16.74
2017-09-29T00:19:08.614Z,16.7
2017-09-29T00:19:36.717Z,16.77
2017-09-29T00:20:04.795Z,16.69
2017-09-29T00:20:32.856Z,16.69
2017-09-29T00:21:00.833Z,16.63
2017-09-29T00:21:28.830Z,16.74
2017-09-29T00:21:56.913Z,16.65
2017-09-29T00:22:25.004Z,16.7
2017-09-29T00:22:52.924Z,16.69
2017-09-29T00:23:20.814Z,16.77
2017-09-29T00:23:48.940Z,16.76
2017-09-29T00:24:16.947Z,16.7
2017-09-29T00:24:45.031Z,16.73
2017-09-29T00:25:13.155Z,16.7
2017-09-29T00:25:41.145Z,16.73
2017-09-29T00:26:09.243Z,16.67
2017-09-29T00:26:37.249Z,16.67
2017-09-29T00:27:05.324Z,16.7
2017-09-29T00:27:33.312Z,16.73
2017-09-29T00:28:01.306Z,16.77
2017-09-29T00:28:29.315Z,16.77
2017-09-29T00:28:57.435Z,16.73
2017-09-29T00:29:25.526Z,16.8
2017-09-29T00:29:53.610Z,16.74
2017-09-29T00:30:21.835Z,16.76
2017-09-29T00:30:49.801Z,16.76
2017-09-29T00:31:17.910Z,16.82
2017-09-29T00:31:45.881Z,16.72
2017-09-29T00:32:13.973Z,16.7
2017-09-29T00:32:41.952Z,16.74
2017-09-29T00:33:09.868Z,16.8
2017-09-29T00:33:37.655Z,16.73
2017-09-29T00:34:05.751Z,16.77
2017-09-29T00:34:33.833Z,16.82
2017-09-29T00:35:01.839Z,16.74
2017-09-29T00:35:30.028Z,16.8
2017-09-29T00:35:58.137Z,16.77
2017-09-29T00:36:26.229Z,16.8
2017-09-29T00:36:54.100Z,16.88
2017-09-29T00:37:22.205Z,16.88
2017-09-29T00:37:50.281Z,16.92
2017-09-29T00:38:18.194Z,16.9
2017-09-29T00:38:46.182Z,16.87
2017-09-29T00:39:14.279Z,16.77
2017-09-29T00:39:42.381Z,16.82
2017-09-29T00:40:10.389Z,16.81
2017-09-29T00:40:38.468Z,16.91
2017-09-29T00:41:06.489Z,16.88
2017-09-29T00:41:34.574Z,16.85
2017-09-29T00:42:02.683Z,16.85
2017-09-29T00:42:30.761Z,16.85
2017-09-29T00:42:58.833Z,16.91
2017-09-29T00:43:26.917Z,16.85
2017-09-29T00:43:54.925Z,16.94
2017-09-29T00:44:22.994Z,16.92
2017-09-29T00:44:51.026Z,16.91
2017-09-29T00:45:18.990Z,16.92
2017-09-29T00:45:47.057Z,16.9
2017-09-29T00:46:14.954Z,16.99
2017-09-29T00:46:43.054Z,16.97
2017-09-29T00:47:11.166Z,17.05
2017-09-29T00:47:39.040Z,16.99
2017-09-29T00:48:07.018Z,16.94
2017-09-29T00:48:35.091Z,17.03
2017-09-29T00:49:03.080Z,16.97
2017-09-29T00:49:31.055Z,17.05
2017-09-29T00:49:59.072Z,16.95
2017-09-29T00:50:27.184Z,16.95
2017-09-29T00:50:55.394Z,16.94
2017-09-29T00:51:23.380Z,16.94
2017-09-29T00:51:51.388Z,16.91
2017-09-29T00:52:19.379Z,16.91
2017-09-29T00:52:47.481Z,17
2017-09-29T00:53:15.477Z,16.92
2017-09-29T00:53:43.578Z,17.03
2017-09-29T00:54:11.571Z,16.87
2017-09-29T00:54:39.457Z,16.88
2017-09-29T00:55:07.447Z,16.85
2017-09-29T00:55:35.630Z,16.95
2017-09-29T00:56:03.655Z,16.92
2017-09-29T00:56:31.633Z,16.81
2017-09-29T00:56:59.612Z,16.85
2017-09-29T00:57:27.695Z,16.92
2017-09-29T00:57:55.702Z,16.84
2017-09-29T00:58:23.788Z,16.9
2017-09-29T00:58:51.777Z,16.8
2017-09-29T00:59:19.855Z,16.84
2017-09-29T00:59:47.773Z,16.76
2017-09-29T01:00:15.781Z,16.9
2017-09-29T01:00:43.881Z,16.8
2017-09-29T01:01:11.877Z,16.85
2017-09-29T01:01:39.907Z,16.73
2017-09-29T01:02:07.903Z,16.76
2017-09-29T01:02:35.895Z,16.8
2017-09-29T01:03:03.809Z,16.73
2017-09-29T01:03:31.697Z,16.72
2017-09-29T01:03:59.699Z,16.76
2017-09-29T01:04:27.781Z,16.7
2017-09-29T01:04:55.778Z,16.74
2017-09-29T01:05:23.783Z,16.73
2017-09-29T01:05:51.878Z,16.72
2017-09-29T01:06:19.860Z,16.67
2017-09-29T01:06:47.860Z,16.74
2017-09-29T01:07:15.953Z,16.74
2017-09-29T01:07:44.041Z,16.72
2017-09-29T01:08:12.119Z,16.76
2017-09-29T01:08:40.105Z,16.73
2017-09-29T01:09:08.195Z,16.7
2017-09-29T01:09:36.084Z,16.62
2017-09-29T01:10:04.175Z,16.67
2017-09-29T01:10:32.179Z,16.72
2017-09-29T01:11:00.365Z,16.73
2017-09-29T01:11:28.362Z,16.77
2017-09-29T01:11:56.442Z,16.65
2017-09-29T01:12:24.535Z,16.74
2017-09-29T01:12:52.458Z,16.69
2017-09-29T01:13:20.560Z,16.72
2017-09-29T01:13:48.540Z,16.69
2017-09-29T01:14:16.634Z,16.72
2017-09-29T01:14:44.658Z,16.76
2017-09-29T01:15:12.765Z,16.73
2017-09-29T01:15:40.891Z,16.73
2017-09-29T01:16:09.098Z,16.87
2017-09-29T01:16:37.180Z,16.87
2017-09-29T01:17:05.155Z,16.81
2017-09-29T01:17:33.049Z,16.9
2017-09-29T01:18:00.864Z,17
2017-09-29T01:18:28.842Z,16.94
2017-09-29T01:18:56.949Z,16.97
2017-09-29T01:19:24.928Z,16.97
2017-09-29T01:19:53.026Z,16.94
2017-09-29T01:20:20.913Z,16.99
2017-09-29T01:20:49.079Z,16.99
2017-09-29T01:21:17.095Z,17.02
2017-09-29T01:21:45.159Z,17.06
2017-09-29T01:22:13.061Z,17.06
2017-09-29T01:22:41.058Z,17.06
2017-09-29T01:23:08.959Z,17.1
2017-09-29T01:23:36.983Z,17.06
2017-09-29T01:24:04.969Z,17.18
2017-09-29T01:24:32.773Z,17.12
2017-09-29T01:25:00.885Z,17.13
2017-09-29T01:25:28.906Z,17.15
2017-09-29T01:25:56.983Z,17.13
2017-09-29T01:26:25.099Z,17.12
2017-09-29T01:26:53.208Z,17.15
2017-09-29T01:27:21.206Z,17.1
2017-09-29T01:27:49.168Z,17.15
2017-09-29T01:28:17.110Z,17.22
2017-09-29T01:28:45.208Z,17.18
2017-09-29T01:29:13.291Z,17.17
2017-09-29T01:29:41.399Z,17.18
2017-09-29T01:30:09.373Z,17.17
2017-09-29T01:30:37.165Z,17.17
2017-09-29T01:31:05.373Z,17.22
2017-09-29T01:31:33.362Z,17.21
2017-09-29T01:32:01.434Z,17.18
2017-09-29T01:32:29.429Z,17.2
2017-09-29T01:32:57.506Z,17.17
2017-09-29T01:33:25.516Z,17.22
2017-09-29T01:33:53.637Z,17.18
2017-09-29T01:34:21.743Z,17.18
2017-09-29T01:34:49.755Z,17.17
2017-09-29T01:35:17.825Z,17.24
2017-09-29T01:35:45.816Z,17.09
2017-09-29T01:36:13.918Z,17.15
2017-09-29T01:36:42.008Z,17.12
2017-09-29T01:37:10.100Z,17.12
2017-09-29T01:37:38.217Z,17.17
2017-09-29T01:38:06.318Z,17.12
2017-09-29T01:38:34.433Z,17.1
2017-09-29T01:39:02.533Z,17.1
2017-09-29T01:39:30.532Z,17.1
2017-09-29T01:39:58.610Z,17.17
2017-09-29T01:40:26.505Z,17.17
2017-09-29T01:40:54.474Z,17.12
2017-09-29T01:41:22.693Z,17.13
2017-09-29T01:41:50.795Z,17.06
2017-09-29T01:42:18.788Z,17.03
2017-09-29T01:42:46.867Z,16.97
2017-09-29T01:43:14.866Z,17.02
2017-09-29T01:43:42.941Z,16.94
2017-09-29T01:44:11.033Z,16.91
2017-09-29T01:44:39.053Z,16.94
2017-09-29T01:45:07.033Z,16.91
2017-09-29T01:45:35.123Z,17.02
2017-09-29T01:46:03.214Z,16.95
2017-09-29T01:46:31.292Z,16.91
2017-09-29T01:46:59.172Z,16.91
2017-09-29T01:47:27.050Z,16.97
2017-09-29T01:47:55.134Z,16.99
2017-09-29T01:48:23.228Z,16.95
2017-09-29T01:48:51.237Z,17.03
2017-09-29T01:49:19.370Z,17.03
2017-09-29T01:49:47.399Z,16.92
2017-09-29T01:50:15.482Z,16.91
2017-09-29T01:50:43.485Z,17.03
2017-09-29T01:51:11.578Z,17.05
2017-09-29T01:51:39.650Z,17.02
2017-09-29T01:52:07.661Z,17.02
2017-09-29T01:52:35.743Z,17.1
2017-09-29T01:53:03.821Z,17.07
2017-09-29T01:53:31.922Z,17.06
2017-09-29T01:53:59.912Z,17.07
2017-09-29T01:54:27.924Z,17.07
2017-09-29T01:54:55.705Z,17.12
2017-09-29T01:55:23.821Z,17.17
2017-09-29T01:55:51.797Z,17.17
2017-09-29T01:56:19.917Z,17.17
2017-09-29T01:56:47.939Z,17.21
2017-09-29T01:57:16.017Z,17.13
2017-09-29T01:57:44.091Z,17.15
2017-09-29T01:58:12.198Z,17.1
2017-09-29T01:58:40.299Z,17.18
2017-09-29T01:59:08.388Z,17.28
2017-09-29T01:59:36.388Z,17.2
2017-09-29T02:00:04.384Z,17.2
2017-09-29T02:00:32.516Z,17.1
2017-09-29T02:01:00.540Z,17.07
2017-09-29T02:01:28.761Z,17.15
2017-09-29T02:01:56.868Z,17.1
2017-09-29T02:02:24.732Z,17.22
2017-09-29T02:02:52.806Z,17.13
2017-09-29T02:03:20.894Z,17.12
2017-09-29T02:03:48.899Z,17.09
2017-09-29T02:04:16.897Z,17.12
2017-09-29T02:04:44.882Z,17.17
2017-09-29T02:05:12.975Z,17.1
2017-09-29T02:05:40.882Z,17.1
2017-09-29T02:06:08.758Z,17.1
2017-09-29T02:06:36.851Z,17.18
2017-09-29T02:07:04.737Z,17.1
2017-09-29T02:07:32.831Z,17.12
2017-09-29T02:08:00.809Z,17.22
2017-09-29T02:08:28.896Z,17.22
2017-09-29T02:08:57.017Z,17.18
2017-09-29T02:09:25.011Z,17.15
2017-09-29T02:09:52.991Z,17.24
2017-09-29T02:10:20.975Z,17.21
2017-09-29T02:10:49.084Z,17.21
2017-09-29T02:11:17.199Z,17.28
2017-09-29T02:11:45.279Z,17.22
2017-09-29T02:12:13.286Z,17.24
2017-09-29T02:12:41.433Z,17.13
2017-09-29T02:13:09.419Z,17.12
2017-09-29T02:13:37.541Z,17.17
2017-09-29T02:14:05.527Z,17.18
2017-09-29T02:14:33.525Z,17.1
2017-09-29T02:15:01.416Z,17.17
2017-09-29T02:15:29.535Z,17.18
2017-09-29T02:15:57.588Z,17.1
2017-09-29T02:16:25.679Z,17.2
2017-09-29T02:16:53.782Z,17.2
2017-09-29T02:17:21.882Z,17.21
2017-09-29T02:17:49.692Z,17.18
2017-09-29T02:18:17.746Z,17.22
2017-09-29T02:18:45.840Z,17.22
2017-09-29T02:19:13.940Z,17.22
2017-09-29T02:19:41.980Z,17.13
2017-09-29T02:20:09.977Z,17.22
2017-09-29T02:20:37.860Z,17.22
2017-09-29T02:21:05.945Z,17.12
2017-09-29T02:21:34.134Z,17.24
2017-09-29T02:22:01.908Z,17.24
2017-09-29T02:22:30.015Z,17.28
2017-09-29T02:22:58.130Z,17.22
2017-09-29T02:23:26.245Z,17.21
2017-09-29T02:23:54.344Z,17.13
2017-09-29T02:24:22.325Z,17.17
2017-09-29T02:24:50.393Z,17.13
2017-09-29T02:25:18.467Z,17.21
2017-09-29T02:25:46.568Z,17.24
2017-09-29T02:26:14.628Z,17.27
2017-09-29T02:26:42.691Z,17.27
2017-09-29T02:27:10.666Z,17.22
2017-09-29T02:27:38.789Z,17.13
2017-09-29T02:28:06.669Z,17.27
2017-09-29T02:28:34.698Z,17.12
2017-09-29T02:29:02.675Z,17.21
2017-09-29T02:29:30.746Z,17.21
2017-09-29T02:29:58.834Z,17.24
2017-09-29T02:30:26.700Z,17.27
2017-09-29T02:30:54.713Z,17.31
2017-09-29T02:31:22.702Z,17.22
2017-09-29T02:31:50.820Z,17.24
2017-09-29T02:32:18.908Z,17.25
2017-09-29T02:32:46.992Z,17.24
2017-09-29T02:33:15.109Z,17.25
2017-09-29T02:33:43.189Z,17.25
2017-09-29T02:34:11.319Z,17.24
2017-09-29T02:34:39.414Z,17.22
2017-09-29T02:35:07.496Z,17.35
2017-09-29T02:35:35.504Z,17.24
2017-09-29T02:36:03.577Z,17.21
2017-09-29T02:36:31.552Z,17.22
2017-09-29T02:36:59.625Z,17.27
2017-09-29T02:37:27.702Z,17.25
2017-09-29T02:37:55.804Z,17.21
2017-09-29T02:38:23.713Z,17.28
2017-09-29T02:38:51.696Z,17.25
2017-09-29T02:39:19.803Z,17.25
2017-09-29T02:39:47.789Z,17.21
2017-09-29T02:40:15.813Z,17.22
2017-09-29T02:40:43.803Z,17.2
2017-09-29T02:41:11.882Z,17.24
2017-09-29T02:41:39.962Z,17.3
2017-09-29T02:42:08.054Z,17.35
2017-09-29T02:42:35.834Z,17.2
2017-09-29T02:43:03.910Z,17.17
2017-09-29T02:43:31.889Z,17.24
2017-09-29T02:43:59.888Z,17.24
2017-09-29T02:44:27.910Z,17.21
2017-09-29T02:44:56.013Z,17.22
2017-09-29T02:45:23.997Z,17.21
2017-09-29T02:45:51.778Z,17.22
2017-09-29T02:46:19.859Z,17.2
2017-09-29T02:46:47.958Z,17.15
2017-09-29T02:47:15.839Z,17.17
2017-09-29T02:47:43.850Z,17.22
2017-09-29T02:48:11.837Z,17.25
2017-09-29T02:48:39.712Z,17.21
2017-09-29T02:49:07.793Z,17.22
2017-09-29T02:49:35.585Z,17.15
2017-09-29T02:50:03.606Z,17.15
2017-09-29T02:50:31.582Z,17.18
2017-09-29T02:50:59.579Z,17.22
2017-09-29T02:51:27.659Z,17.18
2017-09-29T02:51:55.741Z,17.17
2017-09-29T02:52:23.666Z,17.13
2017-09-29T02:52:51.774Z,17.15
2017-09-29T02:53:19.867Z,17.18
2017-09-29T02:53:47.987Z,17.12
2017-09-29T02:54:16.112Z,17.13
2017-09-29T02:54:44.189Z,17.15
2017-09-29T02:55:12.166Z,17.15
2017-09-29T02:55:40.174Z,17.07
2017-09-29T02:56:08.254Z,17.1
2017-09-29T02:56:36.369Z,17.07
2017-09-29T02:57:04.346Z,17.06
2017-09-29T02:57:32.360Z,17.12
2017-09-29T02:58:00.460Z,17.06
2017-09-29T02:58:28.437Z,17.1
2017-09-29T02:58:56.525Z,17.09
2017-09-29T02:59:24.599Z,17.17
2017-09-29T02:59:52.672Z,17.1
2017-09-29T03:00:20.671Z,17.17
2017-09-29T03:00:48.666Z,17.17
2017-09-29T03:01:16.638Z,17.07
2017-09-29T03:01:44.605Z,17.13
2017-09-29T03:02:12.678Z,17.24
2017-09-29T03:02:40.671Z,17.22
2017-09-29T03:03:08.757Z,17.15
2017-09-29T03:03:36.728Z,17.09
2017-09-29T03:04:04.806Z,17.15
2017-09-29T03:04:32.716Z,17.13
2017-09-29T03:05:00.838Z,17.12
2017-09-29T03:05:28.832Z,17.2
2017-09-29T03:05:56.893Z,17.12
2017-09-29T03:06:24.781Z,17.13
2017-09-29T03:06:52.952Z,17.13
2017-09-29T03:07:21.014Z,17.15
2017-09-29T03:07:49.005Z,17.17
2017-09-29T03:08:16.894Z,17.13
2017-09-29T03:08:44.770Z,17.17
2017-09-29T03:09:12.778Z,17.13
2017-09-29T03:09:40.787Z,17.2
2017-09-29T03:10:08.882Z,17.13
2017-09-29T03:10:36.994Z,17.13
2017-09-29T03:11:04.982Z,17.17
2017-09-29T03:11:32.972Z,17.17
2017-09-29T03:12:01.173Z,17.17
2017-09-29T03:12:29.250Z,17.15
2017-09-29T03:12:57.224Z,17.12
2017-09-29T03:13:25.266Z,17.13
2017-09-29T03:13:53.240Z,17.09
2017-09-29T03:14:21.251Z,17.17
2017-09-29T03:14:49.257Z,17.13
2017-09-29T03:15:17.245Z,17.17
2017-09-29T03:15:45.237Z,17.12
2017-09-29T03:16:13.315Z,17.1
2017-09-29T03:16:41.294Z,17.06
2017-09-29T03:17:09.293Z,17.13
2017-09-29T03:17:37.362Z,17.1
2017-09-29T03:18:05.451Z,17.1
2017-09-29T03:18:33.342Z,17.12
2017-09-29T03:19:01.384Z,17.07
2017-09-29T03:19:29.494Z,17.06
2017-09-29T03:19:57.502Z,17.09
2017-09-29T03:20:25.599Z,17.06
2017-09-29T03:20:53.601Z,17.07
2017-09-29T03:21:21.697Z,17.07
2017-09-29T03:21:49.695Z,17.05
2017-09-29T03:22:17.591Z,17.1
2017-09-29T03:22:45.681Z,17.07
2017-09-29T03:23:13.577Z,17.12
2017-09-29T03:23:41.577Z,17.05
2017-09-29T03:24:09.553Z,17.09
2017-09-29T03:24:37.663Z,17.07
2017-09-29T03:25:05.650Z,17.1
2017-09-29T03:25:33.751Z,17.1
2017-09-29T03:26:01.673Z,17.1
2017-09-29T03:26:29.637Z,17.07
2017-09-29T03:26:57.702Z,17.05
2017-09-29T03:27:25.673Z,17.03
2017-09-29T03:27:53.663Z,17.05
2017-09-29T03:28:21.766Z,17.05
2017-09-29T03:28:49.905Z,17.12
2017-09-29T03:29:17.996Z,17.05
2017-09-29T03:29:46.109Z,17.07
2017-09-29T03:30:14.096Z,17
2017-09-29T03:30:42.112Z,17.07
2017-09-29T03:31:10.242Z,17.02
2017-09-29T03:31:38.319Z,17.02
2017-09-29T03:32:06.502Z,17.1
2017-09-29T03:32:34.593Z,17.02
2017-09-29T03:33:02.689Z,16.95
2017-09-29T03:33:30.711Z,16.99
2017-09-29T03:33:58.836Z,17.03
2017-09-29T03:34:26.941Z,17.02
2017-09-29T03:34:55.022Z,16.95
2017-09-29T03:35:23.025Z,16.95
2017-09-29T03:35:51.145Z,17.07
2017-09-29T03:36:19.232Z,17.02
2017-09-29T03:36:47.319Z,17
2017-09-29T03:37:15.525Z,17
2017-09-29T03:37:43.390Z,17.03
2017-09-29T03:38:11.479Z,17.09
2017-09-29T03:38:39.582Z,17.07
2017-09-29T03:39:07.373Z,17.06
2017-09-29T03:39:35.350Z,17.09
2017-09-29T03:40:03.452Z,17.13
2017-09-29T03:40:31.444Z,17.06
2017-09-29T03:40:59.558Z,17.07
2017-09-29T03:41:27.651Z,17.09
2017-09-29T03:41:55.720Z,17.13
2017-09-29T03:42:23.850Z,17.05
2017-09-29T03:42:51.946Z,17.09
2017-09-29T03:43:19.928Z,17.13
2017-09-29T03:43:48.022Z,17.07
2017-09-29T03:44:16.109Z,17.13
2017-09-29T03:44:44.188Z,17.17
2017-09-29T03:45:12.302Z,17.13
2017-09-29T03:45:40.282Z,17.15
2017-09-29T03:46:08.302Z,17.21
2017-09-29T03:46:36.389Z,17.18
2017-09-29T03:47:04.278Z,17.2
2017-09-29T03:47:32.481Z,17.2
2017-09-29T03:48:00.578Z,17.2
2017-09-29T03:48:28.563Z,17.21
2017-09-29T03:48:56.591Z,17.21
2017-09-29T03:49:24.505Z,17.27
2017-09-29T03:49:52.400Z,17.18
2017-09-29T03:50:20.488Z,17.25
2017-09-29T03:50:48.592Z,17.18
2017-09-29T03:51:16.666Z,17.22
2017-09-29T03:51:44.757Z,17.24
2017-09-29T03:52:12.838Z,17.32
2017-09-29T03:52:40.949Z,17.25
2017-09-29T03:53:08.937Z,17.24
2017-09-29T03:53:37.033Z,17.25
2017-09-29T03:54:05.123Z,17.22
2017-09-29T03:54:33.089Z,17.21
2017-09-29T03:55:01.101Z,17.17
2017-09-29T03:55:28.975Z,17.25
2017-09-29T03:55:57.080Z,17.27
2017-09-29T03:56:25.045Z,17.21
2017-09-29T03:56:53.162Z,17.24
2017-09-29T03:57:21.269Z,17.17
2017-09-29T03:57:49.266Z,17.22
2017-09-29T03:58:17.228Z,17.17
2017-09-29T03:58:45.113Z,17.15
2017-09-29T03:59:13.002Z,17.15
2017-09-29T03:59:40.893Z,17.18
2017-09-29T04:00:08.782Z,17.18
2017-09-29T04:00:36.897Z,17.15
2017-09-29T04:01:04.901Z,17.13
2017-09-29T04:01:32.995Z,17.1
2017-09-29T04:02:01.092Z,17.2
2017-09-29T04:02:29.280Z,17.13
2017-09-29T04:02:57.258Z,17.17
2017-09-29T04:03:25.374Z,17.21
2017-09-29T04:03:53.366Z,17.2
2017-09-29T04:04:21.255Z,17.27
2017-09-29T04:04:49.233Z,17.21
2017-09-29T04:05:17.335Z,17.24
2017-09-29T04:05:45.410Z,17.27
2017-09-29T04:06:13.541Z,17.24
2017-09-29T04:06:41.627Z,17.21
2017-09-29T04:07:09.745Z,17.22
2017-09-29T04:07:37.739Z,17.27
2017-09-29T04:08:05.732Z,17.17
2017-09-29T04:08:33.746Z,17.22
2017-09-29T04:09:01.720Z,17.21
2017-09-29T04:09:29.807Z,17.22
2017-09-29T04:09:57.801Z,17.27
2017-09-29T04:10:25.906Z,17.21
2017-09-29T04:10:54.006Z,17.22
2017-09-29T04:11:22.082Z,17.2
2017-09-29T04:11:49.958Z,17.27
2017-09-29T04:12:17.935Z,17.22
2017-09-29T04:12:46.129Z,17.22
2017-09-29T04:13:14.134Z,17.12
2017-09-29T04:13:42.125Z,17.22
2017-09-29T04:14:10.129Z,17.15
2017-09-29T04:14:38.230Z,17.2
2017-09-29T04:15:06.233Z,17.25
2017-09-29T04:15:34.350Z,17.15
2017-09-29T04:16:02.444Z,17.17
2017-09-29T04:16:30.554Z,17.17
2017-09-29T04:16:58.557Z,17.12
2017-09-29T04:17:26.634Z,17.15
2017-09-29T04:17:54.629Z,17.17
2017-09-29T04:18:22.737Z,17.13
2017-09-29T04:18:50.840Z,17.18
2017-09-29T04:19:18.961Z,17.15
2017-09-29T04:19:46.854Z,17.09
2017-09-29T04:20:14.744Z,17.2
2017-09-29T04:20:42.869Z,17.1
2017-09-29T04:21:10.858Z,17.09
2017-09-29T04:21:38.959Z,17.1
2017-09-29T04:22:06.966Z,17.07
2017-09-29T04:22:35.163Z,17.07
2017-09-29T04:23:03.070Z,17
2017-09-29T04:23:31.062Z,17.03
2017-09-29T04:23:59.146Z,17.02
2017-09-29T04:24:27.228Z,17.05
2017-09-29T04:24:55.324Z,17.07
2017-09-29T04:25:23.343Z,17.06
2017-09-29T04:25:51.418Z,17.03
2017-09-29T04:26:19.512Z,16.97
2017-09-29T04:26:47.406Z,16.9
2017-09-29T04:27:15.391Z,16.87
2017-09-29T04:27:43.486Z,16.95
2017-09-29T04:28:11.468Z,16.97
2017-09-29T04:28:39.538Z,16.97
2017-09-29T04:29:07.627Z,16.91
2017-09-29T04:29:35.744Z,16.91
2017-09-29T04:30:03.829Z,16.94
2017-09-29T04:30:31.853Z,16.94
2017-09-29T04:30:59.841Z,16.91
2017-09-29T04:31:27.930Z,16.94
2017-09-29T04:31:56.020Z,17.03
2017-09-29T04:32:24.102Z,16.94
2017-09-29T04:32:52.292Z,16.95
2017-09-29T04:33:20.296Z,16.88
2017-09-29T04:33:48.363Z,16.9
2017-09-29T04:34:16.457Z,16.87
2017-09-29T04:34:44.458Z,16.95
2017-09-29T04:35:12.506Z,16.88
2017-09-29T04:35:40.604Z,16.88
2017-09-29T04:36:08.684Z,16.9
2017-09-29T04:36:36.677Z,16.76
2017-09-29T04:37:04.766Z,16.82
2017-09-29T04:37:32.889Z,16.8
2017-09-29T04:38:01.112Z,16.74
2017-09-29T04:38:29.194Z,16.74
2017-09-29T04:38:57.273Z,16.73
2017-09-29T04:39:25.280Z,16.73
2017-09-29T04:39:53.264Z,16.81
2017-09-29T04:40:21.356Z,16.81
2017-09-29T04:40:49.269Z,16.74
2017-09-29T04:41:17.154Z,16.74
2017-09-29T04:41:45.047Z,16.69
2017-09-29T04:42:13.033Z,16.7
2017-09-29T04:42:41.232Z,16.7
2017-09-29T04:43:09.239Z,16.74
2017-09-29T04:43:37.346Z,16.72
2017-09-29T04:44:05.322Z,16.8
2017-09-29T04:44:33.419Z,16.77
2017-09-29T04:45:01.503Z,16.67
2017-09-29T04:45:29.373Z,16.69
2017-09-29T04:45:57.255Z,16.7
2017-09-29T04:46:25.361Z,16.7
2017-09-29T04:46:53.480Z,16.74
2017-09-29T04:47:21.377Z,16.8
2017-09-29T04:47:49.455Z,16.76
2017-09-29T04:48:17.546Z,16.81
2017-09-29T04:48:45.668Z,16.81
2017-09-29T04:49:13.558Z,16.73
2017-09-29T04:49:41.429Z,16.81
2017-09-29T04:50:09.327Z,16.88
2017-09-29T04:50:37.435Z,16.81
2017-09-29T04:51:05.554Z,16.84
2017-09-29T04:51:33.456Z,16.85
2017-09-29T04:52:01.542Z,16.94
2017-09-29T04:52:29.620Z,16.88
2017-09-29T04:52:57.740Z,16.94
2017-09-29T04:53:25.818Z,16.9
2017-09-29T04:53:53.913Z,16.92
2017-09-29T04:54:22.009Z,16.94
2017-09-29T04:54:50.034Z,16.99
2017-09-29T04:55:18.024Z,16.94
2017-09-29T04:55:46.137Z,16.99
2017-09-29T04:56:14.043Z,17
2017-09-29T04:56:42.161Z,16.95
2017-09-29T04:57:10.300Z,17
2017-09-29T04:57:38.402Z,16.95
2017-09-29T04:58:06.396Z,16.91
2017-09-29T04:58:34.276Z,16.99
2017-09-29T04:59:02.366Z,16.94
2017-09-29T04:59:30.346Z,16.99
2017-09-29T04:59:58.351Z,16.94
2017-09-29T05:00:26.361Z,16.91
2017-09-29T05:00:54.140Z,16.95
2017-09-29T05:01:22.021Z,16.92
2017-09-29T05:01:50.125Z,16.91
2017-09-29T05:02:18.145Z,16.99
2017-09-29T05:02:46.175Z,16.99
2017-09-29T05:03:14.277Z,16.99
2017-09-29T05:03:42.193Z,16.91
2017-09-29T05:04:10.297Z,16.95
2017-09-29T05:04:38.377Z,17
2017-09-29T05:05:06.480Z,16.97
2017-09-29T05:05:34.375Z,16.95
2017-09-29T05:06:02.455Z,16.95
2017-09-29T05:06:30.531Z,16.95
2017-09-29T05:06:58.402Z,17.09
2017-09-29T05:07:26.413Z,16.92
2017-09-29T05:07:54.657Z,16.97
2017-09-29T05:08:22.661Z,16.94
2017-09-29T05:08:50.658Z,16.9
2017-09-29T05:09:18.520Z,16.99
2017-09-29T05:09:46.607Z,16.92
2017-09-29T05:10:14.699Z,16.94
2017-09-29T05:10:42.770Z,16.94
2017-09-29T05:11:10.756Z,16.91
2017-09-29T05:11:38.858Z,16.95
2017-09-29T05:12:06.870Z,16.94
2017-09-29T05:12:34.967Z,16.91
2017-09-29T05:13:02.996Z,16.88
2017-09-29T05:13:31.107Z,16.85
2017-09-29T05:13:59.183Z,16.9
2017-09-29T05:14:27.286Z,16.88
2017-09-29T05:14:55.346Z,16.85
2017-09-29T05:15:23.435Z,16.85
2017-09-29T05:15:51.526Z,16.82
2017-09-29T05:16:19.626Z,16.9
2017-09-29T05:16:47.638Z,16.82
2017-09-29T05:17:15.861Z,16.74
2017-09-29T05:17:43.883Z,16.8
2017-09-29T05:18:12.086Z,16.84
2017-09-29T05:18:39.893Z,16.81
2017-09-29T05:19:08.001Z,16.82
2017-09-29T05:19:36.004Z,16.9
2017-09-29T05:20:04.076Z,16.85
2017-09-29T05:20:31.965Z,16.88
2017-09-29T05:20:59.960Z,16.82
2017-09-29T05:21:28.039Z,16.87
2017-09-29T05:21:55.945Z,16.85
2017-09-29T05:22:23.922Z,16.85
2017-09-29T05:22:51.785Z,16.84
2017-09-29T05:23:19.906Z,16.87
2017-09-29T05:23:48.012Z,16.84
2017-09-29T05:24:16.091Z,16.84
2017-09-29T05:24:44.080Z,16.9
2017-09-29T05:25:12.172Z,16.82
2017-09-29T05:25:40.197Z,16.77
2017-09-29T05:26:08.272Z,16.73
2017-09-29T05:26:36.377Z,16.8
2017-09-29T05:27:04.273Z,16.8
2017-09-29T05:27:32.366Z,16.8
2017-09-29T05:28:00.345Z,16.73
2017-09-29T05:28:28.561Z,16.74
2017-09-29T05:28:56.650Z,16.84
2017-09-29T05:29:24.669Z,16.76
2017-09-29T05:29:52.784Z,16.73
2017-09-29T05:30:20.868Z,16.76
2017-09-29T05:30:48.905Z,16.77
2017-09-29T05:31:16.938Z,16.87
2017-09-29T05:31:45.048Z,16.84
2017-09-29T05:32:13.141Z,16.84
2017-09-29T05:32:41.053Z,16.85
2017-09-29T05:33:09.251Z,16.87
2017-09-29T05:33:37.356Z,16.88
2017-09-29T05:34:05.471Z,16.88
2017-09-29T05:34:33.490Z,16.85
2017-09-29T05:35:01.589Z,16.85
2017-09-29T05:35:29.681Z,16.84
2017-09-29T05:35:57.762Z,16.84
2017-09-29T05:36:25.857Z,16.87
2017-09-29T05:36:53.859Z,16.88
2017-09-29T05:37:21.974Z,16.9
2017-09-29T05:37:49.943Z,16.92
2017-09-29T05:38:18.153Z,16.87
2017-09-29T05:38:46.215Z,16.88
2017-09-29T05:39:14.116Z,16.99
2017-09-29T05:39:42.139Z,16.95
2017-09-29T05:40:10.146Z,17.03
2017-09-29T05:40:38.243Z,16.9
2017-09-29T05:41:06.334Z,16.88
2017-09-29T05:41:34.223Z,16.95
2017-09-29T05:42:02.209Z,16.9
2017-09-29T05:42:30.183Z,16.91
2017-09-29T05:42:58.169Z,16.88
2017-09-29T05:43:26.260Z,16.85
2017-09-29T05:43:54.260Z,16.87
2017-09-29T05:44:22.291Z,16.87
2017-09-29T05:44:50.406Z,16.87
2017-09-29T05:45:18.405Z,16.88
2017-09-29T05:45:46.523Z,16.84
2017-09-29T05:46:14.647Z,16.88
2017-09-29T05:46:42.752Z,16.9
2017-09-29T05:47:10.844Z,16.73
2017-09-29T05:47:38.954Z,16.8
2017-09-29T05:48:06.931Z,16.76
2017-09-29T05:48:35.006Z,16.76
2017-09-29T05:49:03.119Z,16.76
2017-09-29T05:49:31.223Z,16.76
2017-09-29T05:49:59.113Z,16.74
2017-09-29T05:50:27.200Z,16.82
2017-09-29T05:50:55.293Z,16.8
2017-09-29T05:51:23.402Z,16.73
2017-09-29T05:51:51.283Z,16.8
2017-09-29T05:52:19.273Z,16.69
2017-09-29T05:52:47.188Z,16.8
2017-09-29T05:53:15.255Z,16.76
2017-09-29T05:53:43.343Z,16.82
2017-09-29T05:54:11.413Z,16.73
2017-09-29T05:54:39.497Z,16.81
2017-09-29T05:55:07.491Z,16.76
2017-09-29T05:55:35.574Z,16.76
2017-09-29T05:56:03.614Z,16.73
2017-09-29T05:56:31.609Z,16.91
2017-09-29T05:56:59.598Z,16.82
2017-09-29T05:57:27.691Z,16.77
2017-09-29T05:57:55.561Z,16.82
2017-09-29T05:58:23.794Z,16.77
2017-09-29T05:58:51.782Z,16.73
2017-09-29T05:59:19.891Z,16.8
2017-09-29T05:59:47.805Z,16.77
2017-09-29T06:00:15.684Z,16.88
2017-09-29T06:00:43.773Z,16.77
2017-09-29T06:01:11.811Z,16.8
2017-09-29T06:01:39.820Z,16.81
2017-09-29T06:02:07.915Z,16.8
2017-09-29T06:02:36.033Z,16.8
2017-09-29T06:03:04.104Z,16.76